createdAt,value
2022-08-20T00:00:24.086Z,100931.13
2022-08-20T00:00:49.540Z,100932.72
2022-08-20T00:01:11.509Z,100931.13
2022-08-20T00:01:33.518Z,100932.16
2022-08-20T00:01:55.264Z,100932.00
2022-08-20T00:02:17.201Z,100937.31
2022-08-20T00:02:42.034Z,100929.16
2022-08-20T00:03:06.598Z,100924.56
2022-08-20T00:03:32.718Z,100926.44
2022-08-20T00:03:54.428Z,100928.41
2022-08-20T00:04:18.181Z,100929.16
2022-08-20T00:04:41.133Z,100931.00
2022-08-20T00:05:03.331Z,100927.41
2022-08-20T00:05:29.562Z,100927.41
2022-08-20T00:05:57.705Z,100930.13
2022-08-20T00:06:24.763Z,100927.41
2022-08-20T00:06:46.425Z,100926.44
2022-08-20T00:07:09.148Z,100927.28
2022-08-20T00:07:32.127Z,100934.59
2022-08-20T00:07:54.183Z,100932.72
2022-08-20T00:08:16.049Z,100927.28
2022-08-20T00:08:38.794Z,100931.56
2022-08-20T00:09:01.486Z,100919.69
2022-08-20T00:09:23.190Z,100927.72
2022-08-20T00:09:45.466Z,100920.00
2022-08-20T00:10:09.004Z,100926.88
2022-08-20T00:10:34.752Z,100906.66
2022-08-20T00:10:58.776Z,100924.41
2022-08-20T00:11:26.143Z,100917.28
2022-08-20T00:11:50.683Z,100921.69
2022-08-20T00:12:15.851Z,100921.69
2022-08-20T00:12:39.427Z,100926.13
2022-08-20T00:13:01.471Z,100918.97
2022-08-20T00:13:39.041Z,100928.84
2022-08-20T00:14:06.036Z,100917.28
2022-08-20T00:14:27.946Z,100921.84
2022-08-20T00:14:50.985Z,100927.41
2022-08-20T00:15:13.684Z,100915.69
2022-08-20T00:15:37.127Z,100916.53
2022-08-20T00:16:00.574Z,100921.00
2022-08-20T00:16:24.457Z,100920.41
2022-08-20T00:16:46.393Z,100910.41
2022-08-20T00:17:08.201Z,100921.28
2022-08-20T00:17:34.331Z,100926.84
2022-08-20T00:17:57.855Z,100927.84
2022-08-20T00:18:19.888Z,100925.00
2022-08-20T00:18:42.795Z,100923.25
2022-08-20T00:19:07.947Z,100915.09
2022-08-20T00:19:29.700Z,100918.94
2022-08-20T00:19:51.358Z,100922.53
2022-08-20T00:20:14.074Z,100917.97
2022-08-20T00:20:39.124Z,100925.41
2022-08-20T00:21:03.089Z,100925.53
2022-08-20T00:21:25.556Z,100922.09
2022-08-20T00:21:48.261Z,100919.78
2022-08-20T00:22:11.582Z,100930.41
2022-08-20T00:22:33.492Z,100930.41
2022-08-20T00:22:55.237Z,100925.97
2022-08-20T00:23:18.175Z,100928.81
2022-08-20T00:23:41.580Z,100926.09
2022-08-20T00:24:04.203Z,100927.81
2022-08-20T00:24:25.983Z,100930.41
2022-08-20T00:24:48.642Z,100925.66
2022-08-20T00:25:11.332Z,100920.41
2022-08-20T00:25:34.832Z,100928.69
2022-08-20T00:25:56.481Z,100918.63
2022-08-20T00:26:19.470Z,100929.66
2022-08-20T00:26:52.650Z,100924.22
2022-08-20T00:27:14.596Z,100927.81
2022-08-20T00:27:36.400Z,100929.81
2022-08-20T00:27:58.884Z,100919.34
2022-08-20T00:28:21.739Z,100922.66
2022-08-20T00:28:43.469Z,100930.09
2022-08-20T00:29:05.259Z,100916.63
2022-08-20T00:29:27.068Z,100929.34
2022-08-20T00:29:48.752Z,100923.91
2022-08-20T00:30:14.173Z,100918.47
2022-08-20T00:30:36.294Z,100929.66
2022-08-20T00:30:58.309Z,100919.06
2022-08-20T00:31:22.096Z,100916.06
2022-08-20T00:31:44.713Z,100926.94
2022-08-20T00:32:06.947Z,100907.16
2022-08-20T00:32:28.599Z,100924.78
2022-08-20T00:32:53.929Z,100924.94
2022-08-20T00:33:18.295Z,100914.06
2022-08-20T00:33:40.307Z,100922.78
2022-08-20T00:34:02.021Z,100925.50
2022-08-20T00:34:23.691Z,100922.94
2022-08-20T00:34:46.971Z,100915.47
2022-08-20T00:35:09.214Z,100921.19
2022-08-20T00:35:38.192Z,100920.75
2022-08-20T00:36:06.403Z,100920.06
2022-08-20T00:36:32.339Z,100911.44
2022-08-20T00:36:54.721Z,100903.09
2022-08-20T00:37:16.421Z,100922.03
2022-08-20T00:37:38.652Z,100927.47
2022-08-20T00:38:00.939Z,100921.16
2022-08-20T00:38:24.471Z,100930.19
2022-08-20T00:38:46.908Z,100925.75
2022-08-20T00:39:09.022Z,100923.19
2022-08-20T00:39:30.685Z,100922.56
2022-08-20T00:39:53.381Z,100927.88
2022-08-20T00:40:22.797Z,100918.88
2022-08-20T00:40:49.080Z,100923.56
2022-08-20T00:41:13.821Z,100926.28
2022-08-20T00:41:36.512Z,100923.56
2022-08-20T00:42:26.923Z,100928.25
2022-08-20T00:42:52.117Z,100919.41
2022-08-20T00:43:35.499Z,100928.69
2022-08-20T00:44:07.649Z,100931.41
2022-08-20T00:44:29.388Z,100927.09
2022-08-20T00:44:52.132Z,100932.94
2022-08-20T00:45:14.865Z,100934.06
2022-08-20T00:45:36.772Z,100924.59
2022-08-20T00:46:00.197Z,100927.78
2022-08-20T00:46:33.626Z,100928.19
2022-08-20T00:47:06.688Z,100931.63
2022-08-20T00:47:28.831Z,100934.47
2022-08-20T00:47:52.130Z,100936.34
2022-08-20T00:48:17.081Z,100932.63
2022-08-20T00:48:44.129Z,100931.63
2022-08-20T00:49:08.543Z,100937.91
2022-08-20T00:49:32.921Z,100936.34
2022-08-20T00:49:54.619Z,100941.66
2022-08-20T00:50:20.819Z,100931.75
2022-08-20T00:50:42.896Z,100936.06
2022-08-20T00:51:07.982Z,100935.19
2022-08-20T00:51:34.737Z,100937.06
2022-08-20T00:52:00.396Z,100937.66
2022-08-20T00:52:24.501Z,100935.06
2022-08-20T00:52:51.722Z,100943.50
2022-08-20T00:53:13.667Z,100941.66
2022-08-20T00:53:37.597Z,100931.88
2022-08-20T00:54:03.979Z,100932.63
2022-08-20T00:54:31.210Z,100931.75
2022-08-20T00:54:57.899Z,100937.91
2022-08-20T00:55:23.081Z,100934.59
2022-08-20T00:55:46.274Z,100940.63
2022-08-20T00:56:11.225Z,100938.78
2022-08-20T00:56:34.705Z,100933.63
2022-08-20T00:56:59.737Z,100937.31
2022-08-20T00:57:24.996Z,100935.59
2022-08-20T00:58:00.446Z,100933.44
2022-08-20T00:58:24.345Z,100918.22
2022-08-20T00:58:46.809Z,100931.84
2022-08-20T00:59:12.302Z,100932.84
2022-08-20T00:59:37.191Z,100934.69
2022-08-20T01:00:00.542Z,100935.84
2022-08-20T01:00:24.849Z,100934.97
2022-08-20T01:00:47.981Z,100935.09
2022-08-20T01:01:09.761Z,100931.78
2022-08-20T01:01:34.079Z,100933.53
2022-08-20T01:02:14.137Z,100929.06
2022-08-20T01:02:36.064Z,100934.50
2022-08-20T01:03:00.494Z,100932.94
2022-08-20T01:03:22.305Z,100927.50
2022-08-20T01:03:44.085Z,100932.78
2022-08-20T01:04:06.180Z,100932.06
2022-08-20T01:04:34.581Z,100937.50
2022-08-20T01:04:56.971Z,100931.22
2022-08-20T01:05:19.486Z,100936.78
2022-08-20T01:05:44.636Z,100928.63
2022-08-20T01:06:11.880Z,100927.75
2022-08-20T01:06:33.964Z,100927.63
2022-08-20T01:06:56.528Z,100931.47
2022-08-20T01:07:20.762Z,100927.75
2022-08-20T01:07:44.934Z,100928.03
2022-08-20T01:08:07.130Z,100933.72
2022-08-20T01:08:28.988Z,100928.16
2022-08-20T01:08:52.117Z,100931.75
2022-08-20T01:09:14.701Z,100932.59
2022-08-20T01:09:57.661Z,100925.44
2022-08-20T01:10:24.088Z,100934.59
2022-08-20T01:10:57.962Z,100929.88
2022-08-20T01:11:22.369Z,100932.88
2022-08-20T01:11:45.082Z,100933.88
2022-08-20T01:12:07.713Z,100933.13
2022-08-20T01:12:30.465Z,100939.56
2022-08-20T01:12:55.670Z,100937.56
2022-08-20T01:13:26.842Z,100931.28
2022-08-20T01:13:48.913Z,100927.81
2022-08-20T01:14:24.625Z,100931.41
2022-08-20T01:14:48.466Z,100928.56
2022-08-20T01:15:13.760Z,100933.13
2022-08-20T01:15:42.926Z,100930.53
2022-08-20T01:16:12.747Z,100922.41
2022-08-20T01:16:36.715Z,100913.03
2022-08-20T01:17:08.149Z,100917.94
2022-08-20T01:17:34.927Z,100926.97
2022-08-20T01:17:59.283Z,100919.81
2022-08-20T01:18:27.091Z,100923.50
2022-08-20T01:18:51.481Z,100921.78
2022-08-20T01:19:29.815Z,100914.91
2022-08-20T01:19:57.205Z,100920.03
2022-08-20T01:20:22.458Z,100925.63
2022-08-20T01:20:48.167Z,100921.94
2022-08-20T01:21:10.016Z,100926.63
2022-08-20T01:21:34.182Z,100920.59
2022-08-20T01:21:57.224Z,100917.03
2022-08-20T01:22:46.835Z,100921.59
2022-08-20T01:23:30.269Z,100922.06
2022-08-20T01:24:02.913Z,100923.78
2022-08-20T01:24:30.414Z,100931.19
2022-08-20T01:24:58.002Z,100925.00
2022-08-20T01:25:27.060Z,100922.19
2022-08-20T01:25:54.281Z,100920.44
2022-08-20T01:26:18.557Z,100928.59
2022-08-20T01:26:43.741Z,100922.31
2022-08-20T01:27:06.453Z,100919.47
2022-08-20T01:27:29.661Z,100916.75
2022-08-20T01:27:55.643Z,100920.44
2022-08-20T01:28:21.260Z,100919.59
2022-08-20T01:28:45.606Z,100914.16
2022-08-20T01:29:11.548Z,100925.75
2022-08-20T01:29:37.322Z,100915.88
2022-08-20T01:30:00.152Z,100910.72
2022-08-20T01:30:27.334Z,100914.44
2022-08-20T01:30:49.126Z,100916.75
2022-08-20T01:31:14.420Z,100910.72
2022-08-20T01:31:39.683Z,100918.47
2022-08-20T01:32:02.318Z,100901.25
2022-08-20T01:32:24.066Z,100917.50
2022-08-20T01:32:46.046Z,100913.03
2022-08-20T01:33:09.075Z,100914.16
2022-08-20T01:33:32.117Z,100912.88
2022-08-20T01:33:55.890Z,100921.59
2022-08-20T01:34:19.357Z,100921.59
2022-08-20T01:34:42.001Z,100919.75
2022-08-20T01:35:04.386Z,100927.03
2022-08-20T01:35:28.213Z,100899.06
2022-08-20T01:35:51.821Z,100921.59
2022-08-20T01:36:16.923Z,100919.13
2022-08-20T01:36:45.915Z,100923.56
2022-08-20T01:37:08.104Z,100913.03
2022-08-20T01:37:31.859Z,100921.13
2022-08-20T01:37:55.055Z,100918.53
2022-08-20T01:38:17.582Z,100923.84
2022-08-20T01:38:39.942Z,100924.09
2022-08-20T01:39:03.757Z,100930.53
2022-08-20T01:39:29.336Z,100927.81
2022-08-20T01:39:51.079Z,100932.22
2022-08-20T01:40:23.804Z,100933.84
2022-08-20T01:41:03.816Z,100934.25
2022-08-20T01:41:40.482Z,100939.53
2022-08-20T01:42:09.049Z,100926.38
2022-08-20T01:42:54.009Z,100935.34
2022-08-20T01:43:24.111Z,100932.78
2022-08-20T01:43:46.202Z,100935.63
2022-08-20T01:44:16.020Z,100930.06
2022-08-20T01:44:43.606Z,100933.66
2022-08-20T01:45:07.049Z,100927.47
2022-08-20T01:45:30.967Z,100928.22
2022-08-20T01:45:53.135Z,100895.94
2022-08-20T01:46:17.376Z,100927.19
2022-08-20T01:46:43.924Z,100928.22
2022-08-20T01:47:12.981Z,100930.06
2022-08-20T01:47:38.450Z,100923.78
2022-08-20T01:48:00.568Z,100931.81
2022-08-20T01:48:23.195Z,100929.22
2022-08-20T01:48:45.292Z,100935.75
2022-08-20T01:49:13.791Z,100932.03
2022-08-20T01:49:45.882Z,100932.78
2022-08-20T01:50:21.583Z,100912.56
2022-08-20T01:50:50.598Z,100926.50
2022-08-20T01:51:15.300Z,100924.63
2022-08-20T01:51:37.479Z,100928.47
2022-08-20T01:52:01.967Z,100930.88
2022-08-20T01:52:34.473Z,100925.09
2022-08-20T01:53:01.239Z,100929.31
2022-08-20T01:53:28.633Z,100931.63
2022-08-20T01:53:53.926Z,100919.59
2022-08-20T01:54:16.822Z,100923.75
2022-08-20T01:54:38.732Z,100899.16
2022-08-20T01:55:00.516Z,100918.38
2022-08-20T01:55:22.484Z,100923.09
2022-08-20T01:55:44.517Z,100924.78
2022-08-20T01:56:14.129Z,100929.22
2022-08-20T01:56:50.054Z,100922.94
2022-08-20T01:57:14.654Z,100915.41
2022-08-20T01:57:38.789Z,100934.03
2022-08-20T01:58:01.563Z,100933.94
2022-08-20T01:58:23.240Z,100927.72
2022-08-20T01:58:49.724Z,100935.63
2022-08-20T01:59:18.824Z,100933.16
2022-08-20T01:59:41.436Z,100935.63
2022-08-20T02:00:07.140Z,100934.78
2022-08-20T02:00:29.686Z,100934.88
2022-08-20T02:00:51.393Z,100939.09
2022-08-20T02:01:23.124Z,100932.78
2022-08-20T02:01:46.196Z,100915.94
2022-08-20T02:02:10.611Z,100931.69
2022-08-20T02:02:32.349Z,100937.97
2022-08-20T02:02:55.177Z,100942.53
2022-08-20T02:03:17.750Z,100934.13
2022-08-20T02:03:44.429Z,100946.94
2022-08-20T02:04:08.576Z,100944.00
2022-08-20T02:04:38.072Z,100951.41
2022-08-20T02:05:00.760Z,100945.25
2022-08-20T02:05:22.457Z,100942.66
2022-08-20T02:05:45.221Z,100944.25
2022-08-20T02:06:08.001Z,100942.53
2022-08-20T02:06:32.414Z,100941.41
2022-08-20T02:06:58.145Z,100947.69
2022-08-20T02:07:23.597Z,100939.69
2022-08-20T02:07:45.384Z,100935.13
2022-08-20T02:08:07.093Z,100936.84
2022-08-20T02:08:33.078Z,100941.53
2022-08-20T02:08:58.003Z,100945.97
2022-08-20T02:09:19.800Z,100937.72
2022-08-20T02:09:41.918Z,100933.03
2022-08-20T02:10:06.048Z,100937.31
2022-08-20T02:10:28.991Z,100939.28
2022-08-20T02:10:55.773Z,100942.00
2022-08-20T02:11:19.408Z,100938.31
2022-08-20T02:11:42.383Z,100943.63
2022-08-20T02:12:07.527Z,100936.34
2022-08-20T02:12:29.219Z,100933.03
2022-08-20T02:12:51.025Z,100938.94
2022-08-20T02:13:16.371Z,100946.19
2022-08-20T02:13:40.436Z,100933.63
2022-08-20T02:14:05.296Z,100945.19
2022-08-20T02:14:29.274Z,100942.47
2022-08-20T02:14:53.193Z,100944.94
2022-08-20T02:15:16.366Z,100942.06
2022-08-20T02:15:39.849Z,100946.53
2022-08-20T02:16:06.007Z,100942.94
2022-08-20T02:16:32.724Z,100944.78
2022-08-20T02:16:58.266Z,100945.41
2022-08-20T02:17:22.873Z,100944.56
2022-08-20T02:17:44.728Z,100944.56
2022-08-20T02:18:09.008Z,100937.50
2022-08-20T02:18:31.784Z,100940.22
2022-08-20T02:18:58.693Z,100945.66
2022-08-20T02:19:24.182Z,100933.63
2022-08-20T02:19:49.000Z,100943.09
2022-08-20T02:20:16.790Z,100938.78
2022-08-20T02:20:40.604Z,100940.50
2022-08-20T02:21:02.790Z,100938.19
2022-08-20T02:21:28.062Z,100932.88
2022-08-20T02:21:55.729Z,100935.47
2022-08-20T02:22:23.454Z,100942.75
2022-08-20T02:22:50.163Z,100929.44
2022-08-20T02:23:12.957Z,100930.31
2022-08-20T02:23:35.673Z,100933.34
2022-08-20T02:23:58.593Z,100933.34
2022-08-20T02:24:21.248Z,100920.28
2022-08-20T02:24:44.453Z,100937.50
2022-08-20T02:25:08.828Z,100937.50
2022-08-20T02:25:34.528Z,100933.81
2022-08-20T02:25:56.664Z,100933.22
2022-08-20T02:26:21.088Z,100943.22
2022-08-20T02:26:43.996Z,100937.78
2022-08-20T02:27:05.910Z,100925.72
2022-08-20T02:27:27.804Z,100934.59
2022-08-20T02:27:53.222Z,100935.13
2022-08-20T02:28:20.650Z,100945.25
2022-08-20T02:28:42.397Z,100935.75
2022-08-20T02:29:06.030Z,100927.50
2022-08-20T02:29:27.757Z,100922.56
2022-08-20T02:29:50.034Z,100931.44
2022-08-20T02:30:19.980Z,100939.84
2022-08-20T02:30:52.299Z,100942.44
2022-08-20T02:31:14.051Z,100939.94
2022-08-20T02:31:37.393Z,100941.09
2022-08-20T02:32:24.546Z,100932.47
2022-08-20T02:32:56.456Z,100946.03
2022-08-20T02:33:24.372Z,100938.13
2022-08-20T02:34:22.192Z,100941.97
2022-08-20T02:34:28.939Z,100946.53
2022-08-20T02:34:50.945Z,100932.63
2022-08-20T02:35:13.674Z,100947.00
2022-08-20T02:35:35.873Z,100940.59
2022-08-20T02:35:58.703Z,100943.44
2022-08-20T02:36:20.535Z,100938.88
2022-08-20T02:36:43.883Z,100937.16
2022-08-20T02:37:07.388Z,100941.31
2022-08-20T02:37:30.615Z,100940.22
2022-08-20T02:37:53.297Z,100940.69
2022-08-20T02:38:16.129Z,100945.13
2022-08-20T02:38:38.940Z,100946.00
2022-08-20T02:39:01.660Z,100946.59
2022-08-20T02:39:23.489Z,100944.78
2022-08-20T02:39:45.841Z,100943.78
2022-08-20T02:40:09.787Z,100932.56
2022-08-20T02:40:31.955Z,100950.06
2022-08-20T02:40:55.414Z,100930.72
2022-08-20T02:41:17.482Z,100948.22
2022-08-20T02:41:41.243Z,100940.31
2022-08-20T02:42:04.537Z,100939.34
2022-08-20T02:42:27.442Z,100937.59
2022-08-20T02:42:49.133Z,100937.50
2022-08-20T02:43:12.213Z,100939.22
2022-08-20T02:43:35.323Z,100940.06
2022-08-20T02:43:57.094Z,100940.22
2022-08-20T02:44:21.516Z,100929.84
2022-08-20T02:44:43.527Z,100936.13
2022-08-20T02:45:06.507Z,100939.72
2022-08-20T02:45:31.293Z,100943.13
2022-08-20T02:45:53.962Z,100938.84
2022-08-20T02:46:16.298Z,100938.22
2022-08-20T02:46:38.891Z,100938.09
2022-08-20T02:47:03.059Z,100914.97
2022-08-20T02:47:25.959Z,100935.50
2022-08-20T02:47:48.801Z,100940.34
2022-08-20T02:48:12.421Z,100938.50
2022-08-20T02:48:34.453Z,100935.03
2022-08-20T02:48:57.171Z,100941.31
2022-08-20T02:49:20.006Z,100946.03
2022-08-20T02:49:41.726Z,100938.88
2022-08-20T02:50:07.937Z,100939.00
2022-08-20T02:50:30.250Z,100945.41
2022-08-20T02:50:56.944Z,100940.84
2022-08-20T02:51:18.620Z,100942.84
2022-08-20T02:51:52.615Z,100935.41
2022-08-20T02:52:14.304Z,100945.28
2022-08-20T02:52:35.942Z,100943.44
2022-08-20T02:52:58.624Z,100941.22
2022-08-20T02:53:21.162Z,100929.19
2022-08-20T02:53:42.903Z,100941.13
2022-08-20T02:54:04.805Z,100940.38
2022-08-20T02:54:27.455Z,100940.13
2022-08-20T02:54:49.365Z,100948.97
2022-08-20T02:55:12.167Z,100939.88
2022-08-20T02:55:47.776Z,100944.41
2022-08-20T02:56:11.453Z,100945.66
2022-08-20T02:56:33.577Z,100929.56
2022-08-20T02:56:56.622Z,100947.66
2022-08-20T02:57:20.353Z,100939.53
2022-08-20T02:57:42.776Z,100944.81
2022-08-20T02:58:05.464Z,100942.38
2022-08-20T02:58:27.623Z,100938.91
2022-08-20T02:58:49.249Z,100947.03
2022-08-20T02:59:11.141Z,100943.47
2022-08-20T02:59:36.319Z,100953.59
2022-08-20T02:59:58.033Z,100948.16
2022-08-20T03:00:21.484Z,100943.63
2022-08-20T03:00:43.850Z,100943.72
2022-08-20T03:01:08.650Z,100949.25
2022-08-20T03:01:31.876Z,100945.84
2022-08-20T03:01:59.282Z,100947.81
2022-08-20T03:02:22.352Z,100949.06
2022-08-20T03:02:44.288Z,100946.59
2022-08-20T03:03:08.118Z,100945.59
2022-08-20T03:03:29.916Z,100949.06
2022-08-20T03:03:51.546Z,100946.47
2022-08-20T03:04:13.192Z,100941.91
2022-08-20T03:04:35.800Z,100949.91
2022-08-20T03:04:57.499Z,100936.59
2022-08-20T03:05:19.349Z,100937.84
2022-08-20T03:05:43.961Z,100943.50
2022-08-20T03:06:07.684Z,100948.78
2022-08-20T03:06:30.512Z,100940.81
2022-08-20T03:06:52.185Z,100952.97
2022-08-20T03:07:14.613Z,100938.31
2022-08-20T03:07:41.653Z,100939.88
2022-08-20T03:08:07.041Z,100943.06
2022-08-20T03:08:29.274Z,100944.69
2022-08-20T03:08:51.383Z,100939.88
2022-08-20T03:09:13.053Z,100936.16
2022-08-20T03:09:35.726Z,100937.63
2022-08-20T03:09:57.467Z,100945.75
2022-08-20T03:10:22.801Z,100946.50
2022-08-20T03:10:46.851Z,100913.25
2022-08-20T03:11:10.148Z,100937.13
2022-08-20T03:11:32.890Z,100938.84
2022-08-20T03:11:56.969Z,100937.13
2022-08-20T03:12:18.643Z,100940.69
2022-08-20T03:12:40.613Z,100942.53
2022-08-20T03:13:04.930Z,100933.66
2022-08-20T03:13:27.071Z,100942.28
2022-08-20T03:13:48.772Z,100935.63
2022-08-20T03:14:11.656Z,100940.06
2022-08-20T03:14:34.794Z,100934.66
2022-08-20T03:14:56.654Z,100935.75
2022-08-20T03:15:18.621Z,100937.88
2022-08-20T03:15:41.865Z,100938.84
2022-08-20T03:16:05.769Z,100935.28
2022-08-20T03:16:27.580Z,100940.94
2022-08-20T03:16:50.238Z,100938.22
2022-08-20T03:17:11.939Z,100946.34
2022-08-20T03:17:34.627Z,100941.09
2022-08-20T03:17:56.451Z,100937.63
2022-08-20T03:18:19.663Z,100935.78
2022-08-20T03:18:45.328Z,100947.38
2022-08-20T03:19:08.421Z,100938.59
2022-08-20T03:19:30.174Z,100938.59
2022-08-20T03:19:51.808Z,100946.03
2022-08-20T03:20:14.974Z,100939.47
2022-08-20T03:20:36.948Z,100942.47
2022-08-20T03:21:00.099Z,100926.97
2022-08-20T03:21:21.845Z,100933.56
2022-08-20T03:21:43.664Z,100937.91
2022-08-20T03:22:05.507Z,100939.47
2022-08-20T03:22:28.547Z,100930.75
2022-08-20T03:22:50.305Z,100935.91
2022-08-20T03:23:12.293Z,100937.16
2022-08-20T03:23:35.242Z,100932.97
2022-08-20T03:23:58.224Z,100940.13
2022-08-20T03:24:20.136Z,100933.56
2022-08-20T03:24:41.779Z,100934.56
2022-08-20T03:25:05.228Z,100933.84
2022-08-20T03:25:27.035Z,100932.22
2022-08-20T03:25:50.285Z,100940.13
2022-08-20T03:26:13.047Z,100939.97
2022-08-20T03:26:34.745Z,100937.41
2022-08-20T03:26:57.839Z,100931.72
2022-08-20T03:27:21.350Z,100928.91
2022-08-20T03:27:54.450Z,100937.16
2022-08-20T03:28:17.967Z,100934.31
2022-08-20T03:28:40.744Z,100933.56
2022-08-20T03:29:02.464Z,100935.31
2022-08-20T03:29:24.161Z,100922.25
2022-08-20T03:29:45.827Z,100929.00
2022-08-20T03:30:11.140Z,100933.56
2022-08-20T03:30:34.012Z,100933.56
2022-08-20T03:30:56.459Z,100933.47
2022-08-20T03:31:18.864Z,100938.13
2022-08-20T03:31:41.576Z,100932.00
2022-08-20T03:32:07.271Z,100936.91
2022-08-20T03:32:29.566Z,100940.59
2022-08-20T03:32:51.585Z,100929.00
2022-08-20T03:33:14.364Z,100931.00
2022-08-20T03:33:36.546Z,100920.19
2022-08-20T03:34:01.132Z,100933.84
2022-08-20T03:34:22.817Z,100941.13
2022-08-20T03:34:45.488Z,100932.22
2022-08-20T03:35:11.999Z,100936.19
2022-08-20T03:35:34.044Z,100931.03
2022-08-20T03:35:56.712Z,100931.28
2022-08-20T03:36:22.185Z,100931.03
2022-08-20T03:36:49.858Z,100929.19
2022-08-20T03:37:11.669Z,100930.06
2022-08-20T03:37:35.247Z,100930.78
2022-08-20T03:37:57.760Z,100930.78
2022-08-20T03:38:32.426Z,100927.81
2022-08-20T03:38:54.786Z,100924.00
2022-08-20T03:39:16.519Z,100929.69
2022-08-20T03:39:38.396Z,100921.69
2022-08-20T03:40:02.705Z,100925.13
2022-08-20T03:40:28.894Z,100923.41
2022-08-20T03:40:51.263Z,100926.13
2022-08-20T03:41:13.002Z,100920.56
2022-08-20T03:41:35.685Z,100932.13
2022-08-20T03:41:58.713Z,100924.16
2022-08-20T03:42:20.430Z,100925.72
2022-08-20T03:42:42.321Z,100931.03
2022-08-20T03:43:05.401Z,100917.72
2022-08-20T03:43:28.163Z,100930.53
2022-08-20T03:43:49.899Z,100923.25
2022-08-20T03:44:11.586Z,100925.50
2022-08-20T03:44:33.533Z,100924.47
2022-08-20T03:44:58.575Z,100924.47
2022-08-20T03:45:22.736Z,100923.63
2022-08-20T03:45:46.971Z,100922.91
2022-08-20T03:46:22.002Z,100917.97
2022-08-20T03:46:45.400Z,100925.13
2022-08-20T03:47:09.421Z,100922.31
2022-08-20T03:47:31.101Z,100912.81
2022-08-20T03:47:54.599Z,100921.56
2022-08-20T03:48:19.703Z,100923.53
2022-08-20T03:48:42.668Z,100921.19
2022-08-20T03:49:04.496Z,100915.91
2022-08-20T03:49:26.228Z,100914.06
2022-08-20T03:49:47.906Z,100916.91
2022-08-20T03:50:10.687Z,100921.69
2022-08-20T03:50:42.359Z,100921.56
2022-08-20T03:51:04.513Z,100921.28
2022-08-20T03:51:26.234Z,100917.47
2022-08-20T03:51:58.260Z,100914.88
2022-08-20T03:52:21.517Z,100915.75
2022-08-20T03:52:43.238Z,100922.91
2022-08-20T03:53:05.208Z,100915.75
2022-08-20T03:53:29.624Z,100915.63
2022-08-20T03:53:52.293Z,100916.50
2022-08-20T03:54:13.980Z,100912.78
2022-08-20T03:54:35.652Z,100924.63
2022-08-20T03:54:57.433Z,100914.75
2022-08-20T03:55:21.015Z,100915.47
2022-08-20T03:55:53.964Z,100916.13
2022-08-20T03:56:17.317Z,100916.81
2022-08-20T03:56:38.983Z,100919.31
2022-08-20T03:57:02.972Z,100917.31
2022-08-20T03:57:35.649Z,100925.19
2022-08-20T03:58:01.044Z,100913.34
2022-08-20T03:58:33.262Z,100920.38
2022-08-20T03:58:58.561Z,100921.25
2022-08-20T03:59:20.228Z,100921.94
2022-08-20T03:59:44.412Z,100915.53
2022-08-20T04:00:07.254Z,100914.56
2022-08-20T04:00:37.651Z,100924.41
2022-08-20T04:00:59.602Z,100919.13
2022-08-20T04:01:44.570Z,100916.28
2022-08-20T04:02:05.256Z,100916.16
2022-08-20T04:02:27.231Z,100914.16
2022-08-20T04:02:49.047Z,100917.16
2022-08-20T04:03:11.450Z,100925.00
2022-08-20T04:03:34.702Z,100914.16
2022-08-20T04:03:58.571Z,100923.94
2022-08-20T04:04:20.575Z,100920.09
2022-08-20T04:04:42.219Z,100920.97
2022-08-20T04:05:04.609Z,100929.22
2022-08-20T04:05:29.969Z,100922.94
2022-08-20T04:05:52.657Z,100924.78
2022-08-20T04:06:14.346Z,100918.38
2022-08-20T04:06:36.229Z,100919.59
2022-08-20T04:06:59.165Z,100921.31
2022-08-20T04:07:25.736Z,100923.16
2022-08-20T04:07:47.555Z,100923.44
2022-08-20T04:08:11.328Z,100921.13
2022-08-20T04:08:34.364Z,100924.94
2022-08-20T04:08:56.209Z,100929.50
2022-08-20T04:09:17.880Z,100917.94
2022-08-20T04:09:39.881Z,100924.34
2022-08-20T04:10:09.254Z,100918.91
2022-08-20T04:10:31.600Z,100924.34
2022-08-20T04:10:54.617Z,100931.50
2022-08-20T04:11:16.330Z,100930.63
2022-08-20T04:11:39.264Z,100926.78
2022-08-20T04:12:02.516Z,100925.06
2022-08-20T04:12:25.141Z,100925.06
2022-08-20T04:12:53.177Z,100924.81
2022-08-20T04:13:17.600Z,100927.38
2022-08-20T04:13:42.638Z,100927.66
2022-08-20T04:14:05.189Z,100928.03
2022-08-20T04:14:26.838Z,100927.44
2022-08-20T04:14:52.463Z,100938.13
2022-08-20T04:15:16.317Z,100925.31
2022-08-20T04:15:38.175Z,100934.31
2022-08-20T04:16:03.517Z,100933.56
2022-08-20T04:16:27.501Z,100922.88
2022-08-20T04:16:49.346Z,100926.56
2022-08-20T04:17:14.083Z,100932.72
2022-08-20T04:17:37.366Z,100936.28
2022-08-20T04:18:00.181Z,100934.81
2022-08-20T04:18:24.089Z,100933.25
2022-08-20T04:18:57.235Z,100939.16
2022-08-20T04:19:24.381Z,100937.31
2022-08-20T04:19:47.567Z,100937.16
2022-08-20T04:20:12.569Z,100949.91
2022-08-20T04:20:37.081Z,100946.19
2022-08-20T04:20:58.731Z,100943.47
2022-08-20T04:21:20.498Z,100946.06
2022-08-20T04:21:43.130Z,100947.19
2022-08-20T04:22:05.672Z,100939.06
2022-08-20T04:22:27.289Z,100943.34
2022-08-20T04:22:50.796Z,100946.19
2022-08-20T04:23:22.360Z,100944.31
2022-08-20T04:23:44.144Z,100951.47
2022-08-20T04:24:06.147Z,100951.13
2022-08-20T04:24:32.360Z,100940.41
2022-08-20T04:24:54.417Z,100950.25
2022-08-20T04:25:16.496Z,100951.25
2022-08-20T04:25:43.179Z,100944.81
2022-08-20T04:26:05.234Z,100952.25
2022-08-20T04:26:26.993Z,100956.81
2022-08-20T04:26:48.700Z,100959.41
2022-08-20T04:27:14.777Z,100961.38
2022-08-20T04:27:37.339Z,100943.16
2022-08-20T04:28:00.141Z,100950.41
2022-08-20T04:28:26.776Z,100957.56
2022-08-20T04:28:49.990Z,100958.53
2022-08-20T04:29:12.693Z,100955.19
2022-08-20T04:29:36.513Z,100957.66
2022-08-20T04:29:58.360Z,100952.38
2022-08-20T04:30:20.909Z,100958.38
2022-08-20T04:30:51.896Z,100955.94
2022-08-20T04:31:14.141Z,100962.97
2022-08-20T04:31:35.956Z,100959.41
2022-08-20T04:31:57.642Z,100961.38
2022-08-20T04:32:21.238Z,100968.50
2022-08-20T04:32:43.733Z,100971.34
2022-08-20T04:33:07.421Z,100966.03
2022-08-20T04:33:33.908Z,100965.31
2022-08-20T04:33:58.047Z,100961.63
2022-08-20T04:34:19.719Z,100976.16
2022-08-20T04:34:41.407Z,100970.13
2022-08-20T04:35:03.531Z,100970.38
2022-08-20T04:35:27.158Z,100972.47
2022-08-20T04:35:48.860Z,100973.34
2022-08-20T04:36:10.893Z,100971.13
2022-08-20T04:36:32.508Z,100968.53
2022-08-20T04:36:54.212Z,100971.38
2022-08-20T04:37:21.347Z,100966.94
2022-08-20T04:37:43.048Z,100970.63
2022-08-20T04:38:06.537Z,100971.63